Time;durP1;ratioP1;P1;durP2;ratioP2;P2;SDS_P1;SDS_P2;PMS_P1;PMS_P2;Temp;Humidity;BMP_temperature;BMP_pressure;BME280_temperature;BME280_humidity;BME280_pressure;Samples;Min_cycle;Max_cycle;Signal;HPM_P1;HPM_P2
2022/04/22 00:01:35;;;;;;;12.85;7.35;;;10.80;99.90;;;;;;4957831;28;20058;-62
2022/04/22 00:04:01;;;;;;;16.75;8.20;;;10.70;99.90;;;;;;4958427;28;20043;-63
2022/04/22 00:06:28;;;;;;;12.85;8.30;;;10.60;99.90;;;;;;4966213;28;20050;-63
2022/04/22 00:08:54;;;;;;;14.30;8.50;;;10.50;99.90;;;;;;4949572;28;20455;-62
2022/04/22 00:11:29;;;;;;;13.85;8.50;;;10.40;99.90;;;;;;4962180;28;20042;-63
2022/04/22 00:14:04;;;;;;;15.43;8.10;;;10.40;99.90;;;;;;4944090;28;20105;-63
2022/04/22 00:16:31;;;;;;;11.93;8.13;;;10.30;99.90;;;;;;4944886;28;20148;-62
2022/04/22 00:18:58;;;;;;;12.63;7.93;;;10.20;99.90;;;;;;4961377;28;20054;-63
2022/04/22 00:21:26;;;;;;;17.65;8.30;;;10.10;99.90;;;;;;4961811;28;21072;-63
2022/04/22 00:23:52;;;;;;;10.38;7.30;;;10.00;99.90;;;;;;4962299;28;20047;-64
2022/04/22 00:26:19;;;;;;;11.93;7.20;;;9.90;99.90;;;;;;4956604;28;20050;-63
2022/04/22 00:28:45;;;;;;;16.02;7.22;;;9.80;99.90;;;;;;4963647;28;20077;-63
2022/04/22 00:31:11;;;;;;;12.63;7.45;;;9.80;99.90;;;;;;4965966;28;20113;-63
2022/04/22 00:33:37;;;;;;;14.25;7.07;;;9.70;99.90;;;;;;4963707;28;20133;-63
2022/04/22 00:36:03;;;;;;;12.68;7.30;;;9.70;99.90;;;;;;4962985;28;20047;-62
2022/04/22 00:38:29;;;;;;;13.88;7.78;;;9.60;99.90;;;;;;4965428;28;20064;-63
2022/04/22 00:40:56;;;;;;;11.63;7.47;;;9.60;99.90;;;;;;4970266;28;20046;-63
2022/04/22 00:43:27;;;;;;;8.82;7.15;;;9.50;99.90;;;;;;4957916;28;20097;-63
2022/04/22 00:45:54;;;;;;;12.88;7.18;;;9.50;99.90;;;;;;4965786;28;20915;-63
2022/04/22 00:48:21;;;;;;;15.95;7.88;;;9.50;99.90;;;;;;4958242;28;20050;-64
2022/04/22 00:50:47;;;;;;;18.65;7.25;;;9.40;99.90;;;;;;4966217;28;20046;-63
2022/04/22 00:53:14;;;;;;;11.50;8.45;;;9.40;99.90;;;;;;4946637;28;20050;-63
2022/04/22 00:55:42;;;;;;;13.45;7.82;;;9.40;99.90;;;;;;4960060;28;20512;-63
2022/04/22 00:58:09;;;;;;;13.43;7.30;;;9.30;99.90;;;;;;4960899;28;20527;-63
2022/04/22 01:00:35;;;;;;;13.02;7.80;;;9.30;99.90;;;;;;4953678;28;20479;-64
2022/04/22 01:03:01;;;;;;;19.40;8.10;;;9.30;99.90;;;;;;4966900;28;20606;-63
2022/04/22 01:11:00;;;;;;;14.43;7.50;;;9.30;99.90;;;;;;4961768;28;20038;-64
2022/04/22 01:13:26;;;;;;;14.20;8.05;;;9.30;99.90;;;;;;4959351;28;20178;-63
2022/04/22 01:15:52;;;;;;;13.48;7.97;;;9.30;99.90;;;;;;4948610;28;20049;-63
2022/04/22 01:18:18;;;;;;;13.48;7.47;;;9.30;99.90;;;;;;4929562;28;20210;-63
2022/04/22 01:20:44;;;;;;;14.18;8.25;;;9.30;99.90;;;;;;4959089;28;20071;-62
2022/04/22 01:23:10;;;;;;;12.75;7.72;;;9.30;99.90;;;;;;4954962;28;20050;-63
2022/04/22 01:25:36;;;;;;;15.70;7.90;;;9.30;99.90;;;;;;4960370;28;20349;-63
2022/04/22 01:28:03;;;;;;;13.30;7.78;;;9.20;99.90;;;;;;4957475;28;20084;-63
2022/04/22 01:30:29;;;;;;;13.65;7.53;;;9.20;99.90;;;;;;4978960;28;20093;-63
2022/04/22 01:32:57;;;;;;;15.30;7.88;;;9.20;99.90;;;;;;4953502;28;22117;-63
2022/04/22 01:35:24;;;;;;;18.13;8.02;;;9.10;99.90;;;;;;4973099;28;20503;-63
2022/04/22 01:37:50;;;;;;;13.18;7.72;;;9.10;99.90;;;;;;4961409;28;20050;-63
2022/04/22 01:40:17;;;;;;;13.77;7.90;;;9.10;99.90;;;;;;4964996;28;20053;-63
2022/04/22 01:42:43;;;;;;;13.15;8.18;;;9.00;99.90;;;;;;4967199;28;20165;-63
2022/04/22 01:45:10;;;;;;;14.32;7.68;;;9.00;99.90;;;;;;4972601;28;20049;-63
2022/04/22 01:47:36;;;;;;;13.13;7.88;;;9.00;99.90;;;;;;4964778;28;20042;-63
2022/04/22 01:50:03;;;;;;;11.27;7.60;;;9.00;99.90;;;;;;4963656;28;20054;-63
2022/04/22 01:52:29;;;;;;;14.27;7.85;;;8.90;99.90;;;;;;4968971;28;20092;-63
2022/04/22 01:54:56;;;;;;;12.93;8.05;;;8.90;99.90;;;;;;4955570;28;20062;-63
2022/04/22 01:57:22;;;;;;;14.18;7.88;;;8.80;99.90;;;;;;4954509;28;20046;-62
2022/04/22 01:59:49;;;;;;;11.25;7.60;;;8.80;99.90;;;;;;4940256;28;20053;-61
2022/04/22 02:02:19;;;;;;;14.02;8.00;;;8.80;99.90;;;;;;4956198;28;20512;-61
2022/04/22 02:04:45;;;;;;;12.82;7.95;;;8.70;99.90;;;;;;4977204;28;20563;-62
2022/04/22 02:07:11;;;;;;;13.95;8.27;;;8.60;99.90;;;;;;4974489;28;20050;-61
2022/04/22 02:09:37;;;;;;;15.65;8.10;;;8.60;99.90;;;;;;4964852;28;20463;-62
2022/04/22 02:12:04;;;;;;;12.88;8.38;;;8.60;99.90;;;;;;4956493;28;20045;-62
2022/04/22 02:14:30;;;;;;;20.60;8.05;;;8.50;99.90;;;;;;4963292;28;20141;-62
2022/04/22 02:16:56;;;;;;;14.95;9.60;;;8.50;99.90;;;;;;4972641;28;20046;-63
2022/04/22 02:19:22;;;;;;;18.60;10.23;;;8.40;99.90;;;;;;4972397;28;20413;-61
2022/04/22 02:21:49;;;;;;;16.60;8.57;;;8.40;99.90;;;;;;4975932;28;20097;-62
2022/04/22 02:24:15;;;;;;;16.40;9.45;;;8.40;99.90;;;;;;4954502;28;20798;-62
2022/04/22 02:29:26;;;;;;;16.83;8.32;;;8.30;99.90;;;;;;4955418;28;20190;-62
2022/04/22 02:31:53;;;;;;;15.90;8.43;;;8.30;99.90;;;;;;4953565;28;20157;-62
2022/04/22 02:34:22;;;;;;;14.43;8.05;;;8.20;99.90;;;;;;4952171;28;20057;-62
2022/04/22 02:36:50;;;;;;;13.38;8.32;;;8.20;99.90;;;;;;4930586;28;20201;-62
2022/04/22 02:39:17;;;;;;;13.30;8.95;;;8.10;99.90;;;;;;4954415;28;20046;-62
2022/04/22 02:47:12;;;;;;;11.63;7.43;;;8.00;99.90;;;;;;4953048;28;20046;-62
2022/04/22 02:49:38;;;;;;;13.52;7.13;;;8.00;99.90;;;;;;4956396;28;20049;-62
2022/04/22 02:52:05;;;;;;;11.98;7.20;;;8.00;99.90;;;;;;4953884;28;20393;-61
2022/04/22 02:54:31;;;;;;;11.02;7.45;;;8.00;99.90;;;;;;4944343;28;20047;-62
2022/04/22 02:57:00;;;;;;;19.13;8.27;;;7.90;99.90;;;;;;4936684;28;20427;-62
2022/04/22 02:59:28;;;;;;;23.95;8.07;;;7.90;99.90;;;;;;4947424;28;20046;-61
2022/04/22 03:01:54;;;;;;;12.52;6.97;;;7.90;99.90;;;;;;4954872;28;20046;-63
2022/04/22 03:04:20;;;;;;;14.85;7.22;;;7.90;99.90;;;;;;4945475;28;20285;-63
2022/04/22 03:06:46;;;;;;;12.75;7.03;;;7.90;99.90;;;;;;4958781;28;20061;-62
2022/04/22 03:09:12;;;;;;;13.15;7.50;;;7.80;99.90;;;;;;4961516;28;20051;-62
2022/04/22 03:11:38;;;;;;;14.57;7.15;;;7.90;99.90;;;;;;4955903;28;20093;-62
2022/04/22 03:14:05;;;;;;;14.18;7.15;;;7.90;99.90;;;;;;4944557;28;20745;-62
2022/04/22 03:16:32;;;;;;;11.35;7.30;;;7.80;99.90;;;;;;4943695;28;20105;-62
2022/04/22 03:18:59;;;;;;;12.35;7.85;;;7.80;99.90;;;;;;4966623;28;20359;-62
2022/04/22 03:21:25;;;;;;;12.63;7.53;;;7.80;99.90;;;;;;4961934;28;20054;-66
2022/04/22 03:23:51;;;;;;;12.80;7.78;;;7.80;99.90;;;;;;4960938;28;20046;-61
2022/04/22 03:26:18;;;;;;;12.23;7.88;;;7.80;99.90;;;;;;4958417;28;20058;-61
2022/04/22 03:28:47;;;;;;;17.23;7.93;;;7.70;99.90;;;;;;4965031;28;20090;-61
2022/04/22 03:31:13;;;;;;;10.88;7.55;;;7.70;99.90;;;;;;4961491;28;20148;-62
2022/04/22 03:33:39;;;;;;;12.57;7.75;;;7.70;99.90;;;;;;4946870;28;20045;-62
2022/04/22 03:36:05;;;;;;;14.27;7.57;;;7.70;99.90;;;;;;4962726;28;20046;-62
2022/04/22 03:38:31;;;;;;;13.50;7.45;;;7.70;99.90;;;;;;4961486;28;20050;-62
2022/04/22 03:40:57;;;;;;;11.32;7.40;;;7.60;99.90;;;;;;4969750;28;20050;-61
2022/04/22 03:43:24;;;;;;;16.27;7.65;;;7.60;99.90;;;;;;4973073;28;20042;-61
2022/04/22 03:45:50;;;;;;;11.23;7.40;;;7.60;99.90;;;;;;4956138;28;20357;-62
2022/04/22 03:48:16;;;;;;;13.80;7.70;;;7.60;99.90;;;;;;4969440;28;20101;-62
2022/04/22 03:50:42;;;;;;;12.88;7.57;;;7.50;99.90;;;;;;4966612;28;20597;-62
2022/04/22 03:53:12;;;;;;;14.57;7.93;;;7.50;99.90;;;;;;4960492;28;20046;-61
2022/04/22 03:55:43;;;;;;;13.07;7.43;;;7.50;99.90;;;;;;4965655;28;20050;-61
2022/04/22 03:58:12;;;;;;;13.27;7.53;;;7.40;99.90;;;;;;4960343;28;20086;-62
2022/04/22 04:00:40;;;;;;;15.45;8.60;;;7.40;99.90;;;;;;4961773;28;20501;-63
2022/04/22 04:03:13;;;;;;;17.23;8.90;;;7.40;99.90;;;;;;4961633;28;20061;-62
2022/04/22 04:05:40;;;;;;;15.30;8.98;;;7.30;99.90;;;;;;4955960;28;20834;-61
2022/04/22 04:08:09;;;;;;;12.73;7.65;;;7.30;99.90;;;;;;4975362;28;20054;-61
2022/04/22 04:16:04;;;;;;;16.33;8.88;;;7.20;99.90;;;;;;4959704;28;20050;-61
2022/04/22 04:18:33;;;;;;;12.68;7.82;;;7.10;99.90;;;;;;4961368;28;20077;-61
2022/04/22 04:23:45;;;;;;;14.00;7.13;;;7.10;99.90;;;;;;4963695;28;20058;-61
2022/04/22 04:26:12;;;;;;;10.43;6.82;;;7.00;99.90;;;;;;4958873;28;20121;-61
2022/04/22 04:28:39;;;;;;;8.48;6.68;;;7.00;99.90;;;;;;4965320;28;20374;-61
2022/04/22 04:31:06;;;;;;;13.05;7.05;;;7.00;99.90;;;;;;4981902;28;20046;-62
2022/04/22 04:33:32;;;;;;;10.57;6.57;;;7.00;99.90;;;;;;4956205;28;20112;-62
2022/04/22 04:35:59;;;;;;;11.15;7.07;;;6.90;99.90;;;;;;4969568;28;20049;-61
2022/04/22 04:38:27;;;;;;;12.52;7.25;;;6.90;99.90;;;;;;4981891;28;20688;-62
2022/04/22 04:40:53;;;;;;;8.32;6.47;;;6.90;99.90;;;;;;4986133;28;20447;-62
2022/04/22 04:43:20;;;;;;;11.95;6.30;;;6.90;99.90;;;;;;4988003;28;20065;-61
2022/04/22 04:45:46;;;;;;;9.50;6.35;;;6.90;99.90;;;;;;4972341;28;20179;-61
2022/04/22 04:48:12;;;;;;;12.27;6.50;;;6.90;99.90;;;;;;4989708;28;20805;-62
2022/04/22 04:50:43;;;;;;;12.63;6.75;;;6.90;99.90;;;;;;4983025;28;20041;-62
2022/04/22 04:53:10;;;;;;;12.52;6.00;;;6.90;99.90;;;;;;4979403;28;20118;-61
2022/04/22 04:55:35;;;;;;;8.38;5.78;;;6.80;99.90;;;;;;4954939;28;20123;-62
2022/04/22 04:58:02;;;;;;;10.85;6.38;;;6.90;99.90;;;;;;4962305;28;20049;-62
2022/04/22 05:00:28;;;;;;;10.55;6.03;;;6.90;99.90;;;;;;4970593;28;20104;-62
2022/04/22 05:02:57;;;;;;;10.18;5.93;;;6.80;99.90;;;;;;4963602;28;20049;-61
2022/04/22 05:05:23;;;;;;;12.35;5.93;;;6.90;99.90;;;;;;4979887;28;20596;-62
2022/04/22 05:07:56;;;;;;;6.93;5.47;;;6.90;99.90;;;;;;4961899;28;20046;-61
2022/04/22 05:10:22;;;;;;;;;;;7.00;99.90;;;;;;4980793;28;20050;-61
2022/04/22 05:12:49;;;;;;;7.97;5.30;;;7.00;99.90;;;;;;4979188;28;20979;-62
2022/04/22 05:15:17;;;;;;;10.00;5.40;;;7.00;99.90;;;;;;4976156;28;20050;-62
2022/04/22 05:17:43;;;;;;;10.13;5.10;;;7.00;99.90;;;;;;4979024;28;20047;-60
2022/04/22 05:20:12;;;;;;;8.23;4.97;;;7.00;99.90;;;;;;4982586;28;20337;-62
2022/04/22 05:22:39;;;;;;;10.15;5.15;;;7.10;99.90;;;;;;4980098;28;20416;-60
2022/04/22 05:25:07;;;;;;;7.00;4.63;;;7.10;99.90;;;;;;4957141;28;21974;-61
2022/04/22 05:27:34;;;;;;;7.82;4.80;;;7.10;99.90;;;;;;4956840;28;20045;-61
2022/04/22 05:32:47;;;;;;;8.82;4.88;;;7.20;99.90;;;;;;4954440;28;20050;-62
2022/04/22 05:35:15;;;;;;;7.40;5.15;;;7.20;99.90;;;;;;4964810;28;20043;-61
2022/04/22 05:38:02;;;;;;;10.90;4.72;;;7.20;99.90;;;;;;4962271;28;20046;-62
2022/04/22 05:40:30;;;;;;;7.18;4.65;;;7.30;99.90;;;;;;4967169;28;20432;-61
2022/04/22 05:42:57;;;;;;;7.32;4.40;;;7.30;99.90;;;;;;4958103;28;20045;-61
2022/04/22 05:45:24;;;;;;;7.68;4.18;;;7.30;99.90;;;;;;4967462;28;20061;-62
2022/04/22 05:47:53;;;;;;;10.05;4.40;;;7.40;99.90;;;;;;4943819;28;21753;-62
2022/04/22 05:50:21;;;;;;;6.70;4.13;;;7.50;99.90;;;;;;4958581;28;20045;-61
2022/04/22 05:52:47;;;;;;;7.53;3.85;;;7.50;99.90;;;;;;4958110;28;20433;-61
2022/04/22 05:55:18;;;;;;;7.70;4.47;;;7.50;99.90;;;;;;4939423;28;20519;-62
2022/04/22 05:57:46;;;;;;;8.30;4.18;;;7.50;99.90;;;;;;4979826;28;20540;-62
2022/04/22 06:00:15;;;;;;;6.85;4.22;;;7.60;99.90;;;;;;4979745;28;20144;-61
2022/04/22 06:02:42;;;;;;;7.30;4.03;;;7.60;99.90;;;;;;4979045;28;20437;-62
2022/04/22 06:05:10;;;;;;;6.00;3.70;;;7.70;99.90;;;;;;4965140;28;20057;-62
2022/04/22 06:07:36;;;;;;;7.05;4.00;;;7.70;99.90;;;;;;4956557;28;20081;-61
2022/04/22 06:12:48;;;;;;;5.03;3.90;;;7.80;99.90;;;;;;4972972;28;21072;-62
2022/04/22 06:15:14;;;;;;;5.85;3.88;;;7.90;99.90;;;;;;4974856;28;20046;-57
2022/04/22 06:17:40;;;;;;;8.45;3.90;;;7.90;99.90;;;;;;4979614;28;20519;-63
2022/04/22 06:20:06;;;;;;;8.82;4.30;;;8.10;99.90;;;;;;4980931;28;20507;-63
2022/04/22 06:22:32;;;;;;;5.80;3.50;;;8.10;99.90;;;;;;4981046;28;20093;-64
2022/04/22 06:24:58;;;;;;;7.95;3.75;;;8.20;99.90;;;;;;4980517;28;20176;-64
2022/04/22 06:27:37;;;;;;;6.53;3.55;;;8.30;99.90;;;;;;4983742;28;20136;-64
2022/04/22 06:30:15;;;;;;;7.97;3.97;;;8.30;99.90;;;;;;4988832;28;20059;-64
2022/04/22 06:32:43;;;;;;;7.28;3.85;;;8.40;99.90;;;;;;4984670;28;20037;-60
2022/04/22 06:35:11;;;;;;;10.20;3.60;;;8.50;99.90;;;;;;4984327;28;20131;-64
2022/04/22 06:37:42;;;;;;;5.60;3.60;;;8.60;99.90;;;;;;4981222;28;20426;-64
2022/04/22 06:45:46;;;;;;;5.60;3.40;;;8.80;99.90;;;;;;4976147;28;20144;-61
2022/04/22 06:48:14;;;;;;;4.80;3.20;;;8.90;99.90;;;;;;4972856;28;20584;-63
2022/04/22 06:50:41;;;;;;;5.55;3.70;;;9.00;99.90;;;;;;4977565;28;20068;-63
2022/04/22 06:53:08;;;;;;;11.82;3.80;;;9.00;99.90;;;;;;4974123;28;20219;-61
2022/04/22 06:55:34;;;;;;;5.32;3.25;;;9.10;99.90;;;;;;4972650;28;20054;-61
2022/04/22 06:58:01;;;;;;;5.25;3.33;;;9.20;99.90;;;;;;4943830;28;20053;-63
2022/04/22 07:00:27;;;;;;;8.32;3.45;;;9.30;99.90;;;;;;4958412;28;20045;-62
2022/04/22 07:02:53;;;;;;;7.00;3.63;;;9.30;99.90;;;;;;4959725;28;20046;-61
2022/04/22 07:05:19;;;;;;;6.85;3.28;;;9.40;99.90;;;;;;4949006;28;20050;-64
2022/04/22 07:07:45;;;;;;;5.25;3.10;;;9.50;99.90;;;;;;4959491;28;20141;-64
2022/04/22 07:10:11;;;;;;;6.57;3.25;;;9.60;99.90;;;;;;4977971;28;24002;-64
2022/04/22 07:12:38;;;;;;;5.75;3.13;;;9.70;99.90;;;;;;4970489;28;20038;-60
2022/04/22 07:15:04;;;;;;;8.35;3.72;;;9.80;99.90;;;;;;4973240;28;20105;-62
2022/04/22 07:17:35;;;;;;;10.43;3.67;;;9.80;99.90;;;;;;4973954;28;20563;-61
2022/04/22 07:20:05;;;;;;;8.30;4.07;;;9.90;99.90;;;;;;4956824;28;20128;-64
2022/04/22 07:22:32;;;;;;;7.45;3.80;;;10.00;99.90;;;;;;4971880;28;20053;-64
2022/04/22 07:24:58;;;;;;;9.07;3.20;;;10.10;99.90;;;;;;4975420;28;20085;-65
2022/04/22 07:27:28;;;;;;;6.90;3.50;;;10.20;99.90;;;;;;4961341;28;20057;-64
2022/04/22 07:29:59;;;;;;;8.35;3.60;;;10.30;99.90;;;;;;4977379;28;21828;-63
2022/04/22 07:32:25;;;;;;;5.72;3.53;;;10.40;99.90;;;;;;4983074;28;20644;-64
2022/04/22 07:34:51;;;;;;;14.32;3.63;;;10.50;99.90;;;;;;4984560;28;20052;-60
2022/04/22 07:37:18;;;;;;;6.20;3.20;;;10.50;99.90;;;;;;4962408;28;20723;-63
2022/04/22 07:39:44;;;;;;;7.72;3.33;;;10.60;99.90;;;;;;4971673;28;20046;-63
2022/04/22 07:42:20;;;;;;;6.15;3.42;;;10.80;99.90;;;;;;4986407;28;20084;-64
2022/04/22 07:47:33;;;;;;;7.30;3.50;;;10.90;99.90;;;;;;4986327;28;20145;-64
2022/04/22 07:50:02;;;;;;;6.93;3.50;;;11.00;99.90;;;;;;4990421;28;20431;-64
2022/04/22 07:52:28;;;;;;;5.75;3.67;;;11.10;99.90;;;;;;4989239;28;20527;-64
2022/04/22 07:54:54;;;;;;;8.27;3.40;;;11.20;99.90;;;;;;4983988;28;20431;-64
2022/04/22 07:57:21;;;;;;;8.95;3.45;;;11.30;99.90;;;;;;4982220;28;20053;-64
2022/04/22 07:59:47;;;;;;;4.95;3.20;;;11.30;99.90;;;;;;4965327;28;20046;-61
2022/04/22 08:02:13;;;;;;;7.28;3.75;;;11.40;99.90;;;;;;4959473;28;20125;-61
2022/04/22 08:04:39;;;;;;;8.05;3.60;;;11.50;99.90;;;;;;4974563;28;20053;-61
2022/04/22 08:07:07;;;;;;;8.45;3.40;;;11.60;99.90;;;;;;4961577;28;20046;-63
2022/04/22 08:09:33;;;;;;;6.85;3.65;;;11.70;99.90;;;;;;4960982;28;20053;-62
2022/04/22 08:12:00;;;;;;;8.43;3.22;;;11.80;99.90;;;;;;4977317;28;20111;-61
2022/04/22 08:14:27;;;;;;;9.35;3.33;;;11.90;99.90;;;;;;4964028;28;20047;-65
2022/04/22 08:16:56;;;;;;;6.35;3.10;;;11.90;99.90;;;;;;4958756;28;20449;-62
2022/04/22 08:19:22;;;;;;;5.75;3.10;;;12.00;99.90;;;;;;4962557;28;21042;-63
2022/04/22 08:21:48;;;;;;;7.60;3.30;;;12.10;99.90;;;;;;4959965;28;20057;-65
2022/04/22 08:24:13;;;;;;;7.35;3.47;;;12.20;99.90;;;;;;4958992;28;20135;-63
2022/04/22 08:26:39;;;;;;;4.63;3.10;;;12.30;99.90;;;;;;4979342;28;20515;-65
2022/04/22 08:29:05;;;;;;;5.85;3.50;;;12.40;99.90;;;;;;4959304;28;20082;-62
2022/04/22 08:31:31;;;;;;;5.00;3.17;;;12.50;99.90;;;;;;4958049;28;20058;-61
2022/04/22 08:33:57;;;;;;;8.35;3.40;;;12.60;99.50;;;;;;4958598;28;20185;-64
2022/04/22 08:36:32;;;;;;;5.20;3.20;;;12.60;99.40;;;;;;4959657;28;20479;-64
2022/04/22 08:38:58;;;;;;;6.53;3.53;;;12.80;99.30;;;;;;4954022;28;20058;-62
2022/04/22 08:41:26;;;;;;;10.63;3.90;;;12.90;98.70;;;;;;4957171;28;20058;-65
2022/04/22 08:43:56;;;;;;;9.05;3.40;;;12.90;98.40;;;;;;4961680;28;20634;-64
2022/04/22 08:52:02;;;;;;;12.20;3.33;;;13.20;98.10;;;;;;4961646;28;21176;-65
2022/04/22 08:54:30;;;;;;;6.20;3.40;;;13.30;97.90;;;;;;4957788;28;20077;-63
2022/04/22 08:56:56;;;;;;;6.65;3.10;;;13.40;97.60;;;;;;4956916;28;20165;-63
2022/04/22 08:59:25;;;;;;;9.10;3.50;;;13.40;97.20;;;;;;4956653;28;20046;-62
2022/04/22 09:01:52;;;;;;;7.32;3.20;;;13.50;96.90;;;;;;4957049;28;20057;-64
2022/04/22 09:04:19;;;;;;;5.68;3.40;;;13.60;96.50;;;;;;4958423;28;20039;-62
2022/04/22 09:06:47;;;;;;;11.45;3.20;;;13.70;96.50;;;;;;4954772;28;20133;-62
2022/04/22 09:09:13;;;;;;;5.70;3.10;;;13.80;96.00;;;;;;4957640;28;20505;-64
2022/04/22 09:11:43;;;;;;;5.32;3.20;;;13.80;95.40;;;;;;4957567;28;20095;-64
2022/04/22 09:14:09;;;;;;;8.73;3.58;;;13.90;94.70;;;;;;4957992;28;20042;-62
2022/04/22 09:16:34;;;;;;;5.15;3.42;;;13.90;94.40;;;;;;4965028;28;20635;-65
2022/04/22 09:19:03;;;;;;;4.70;3.08;;;14.00;94.70;;;;;;4957330;28;20130;-63
2022/04/22 09:21:31;;;;;;;8.35;3.50;;;14.20;94.60;;;;;;4956328;28;20050;-66
2022/04/22 09:24:14;;;;;;;10.55;3.40;;;14.30;94.10;;;;;;4954736;28;20096;-65
2022/04/22 09:26:40;;;;;;;8.50;3.05;;;14.40;93.80;;;;;;4960170;28;20050;-65
2022/04/22 09:29:06;;;;;;;7.50;3.20;;;14.50;93.80;;;;;;4969668;28;20090;-65
2022/04/22 09:31:49;;;;;;;7.63;3.30;;;14.60;93.50;;;;;;4965264;28;20077;-64
2022/04/22 09:34:16;;;;;;;8.27;3.25;;;14.80;92.40;;;;;;4960982;28;20046;-65
2022/04/22 09:45:07;;;;;;;6.82;3.05;;;15.00;90.30;;;;;;4963402;28;20042;-65
2022/04/22 09:47:35;;;;;;;6.15;3.47;;;15.10;90.60;;;;;;4965419;28;20050;-66
2022/04/22 09:50:10;;;;;;;5.10;3.10;;;15.20;89.40;;;;;;4964814;28;20043;-65
2022/04/22 09:52:43;;;;;;;9.07;3.10;;;15.30;89.90;;;;;;4969375;28;21112;-65
2022/04/22 09:55:10;;;;;;;;;;;15.40;88.40;;;;;;4975478;28;20054;-63
2022/04/22 09:57:52;;;;;;;5.72;3.28;;;15.50;89.00;;;;;;4969133;28;19922;-65
2022/04/22 10:00:19;;;;;;;7.13;3.70;;;15.60;87.50;;;;;;4964131;28;20061;-65
2022/04/22 10:02:51;;;;;;;4.60;3.15;;;15.70;87.30;;;;;;4960416;28;20381;-62
2022/04/22 10:05:24;;;;;;;6.65;3.08;;;15.70;87.00;;;;;;4956869;28;20094;-63
2022/04/22 10:07:52;;;;;;;6.47;3.42;;;15.80;87.30;;;;;;4954784;28;20069;-66
2022/04/22 10:10:28;;;;;;;8.50;3.33;;;16.00;86.70;;;;;;4955243;28;20548;-66
2022/04/22 10:12:58;;;;;;;7.68;3.30;;;16.00;85.70;;;;;;4957865;28;20085;-63
2022/04/22 10:15:32;;;;;;;5.55;3.45;;;16.10;84.50;;;;;;4963649;28;20080;-66
2022/04/22 10:17:59;;;;;;;7.10;3.28;;;16.20;83.70;;;;;;4963098;28;20046;-65
2022/04/22 10:20:26;;;;;;;8.10;3.13;;;16.30;84.30;;;;;;4961395;28;20050;-63
2022/04/22 10:22:52;;;;;;;10.38;3.70;;;16.40;82.50;;;;;;4959377;28;20197;-63
2022/04/22 10:25:19;;;;;;;7.18;3.13;;;16.40;82.20;;;;;;4959528;28;20173;-63
2022/04/22 10:27:46;;;;;;;6.75;3.25;;;16.50;82.90;;;;;;4963735;28;20050;-66
2022/04/22 10:30:14;;;;;;;6.50;3.40;;;16.70;82.70;;;;;;4958518;28;20062;-66
2022/04/22 10:32:41;;;;;;;8.95;3.53;;;16.80;81.30;;;;;;4960137;28;20071;-66
2022/04/22 10:35:09;;;;;;;5.47;3.50;;;16.80;79.20;;;;;;4950244;28;20575;-66
2022/04/22 10:37:38;;;;;;;7.15;3.22;;;16.80;79.10;;;;;;4943684;28;20175;-65
2022/04/22 10:40:05;;;;;;;9.95;3.20;;;16.90;78.20;;;;;;4964108;28;20424;-62
2022/04/22 10:42:37;;;;;;;5.63;3.45;;;16.90;77.30;;;;;;4949474;28;20089;-66
2022/04/22 10:47:50;;;;;;;6.82;3.50;;;17.00;76.90;;;;;;4960054;28;20486;-66
2022/04/22 10:50:37;;;;;;;6.22;3.42;;;17.10;76.50;;;;;;4958398;28;20081;-63
2022/04/22 10:53:23;;;;;;;6.70;3.40;;;17.10;75.80;;;;;;4961022;28;20858;-66
2022/04/22 10:55:49;;;;;;;10.80;3.92;;;17.10;75.30;;;;;;4961188;28;20057;-63
2022/04/22 10:58:21;;;;;;;6.45;3.22;;;17.10;75.00;;;;;;4961599;28;20423;-63
2022/04/22 11:00:54;;;;;;;4.35;3.13;;;17.20;74.30;;;;;;4959050;28;20121;-63
2022/04/22 11:03:37;;;;;;;8.30;3.70;;;17.30;74.10;;;;;;4963202;28;20505;-63
2022/04/22 11:06:06;;;;;;;16.60;4.18;;;17.40;73.70;;;;;;4959940;28;20466;-66
2022/04/22 11:08:36;;;;;;;8.70;3.80;;;17.50;73.50;;;;;;4957529;28;20057;-63
2022/04/22 11:11:22;;;;;;;6.82;3.58;;;17.60;72.50;;;;;;4967179;28;20047;-64
2022/04/22 11:13:50;;;;;;;5.63;3.53;;;17.60;72.70;;;;;;4967526;28;20058;-66
2022/04/22 11:16:22;;;;;;;7.60;3.85;;;17.70;72.30;;;;;;4969324;28;20118;-66
2022/04/22 11:19:19;;;;;;;9.20;3.60;;;17.80;71.10;;;;;;4967653;28;21507;-66
2022/04/22 11:22:06;;;;;;;9.45;3.67;;;17.90;72.00;;;;;;4950556;28;20063;-66
2022/04/22 11:24:33;;;;;;;7.82;3.67;;;18.10;71.80;;;;;;4980786;28;20480;-66
2022/04/22 11:27:05;;;;;;;6.90;4.00;;;18.20;71.20;;;;;;4948727;28;20046;-64
2022/04/22 11:29:31;;;;;;;11.50;4.65;;;18.20;69.90;;;;;;4976337;28;20054;-66
2022/04/22 11:32:17;;;;;;;9.85;3.70;;;18.30;70.30;;;;;;4981680;28;20463;-66
2022/04/22 11:35:03;;;;;;;7.78;3.80;;;18.40;69.10;;;;;;4973806;28;20412;-65
2022/04/22 11:37:29;;;;;;;5.30;3.75;;;18.30;67.00;;;;;;4963457;28;20049;-66
2022/04/22 11:39:55;;;;;;;10.75;4.32;;;18.30;67.20;;;;;;4984615;28;20077;-64
2022/04/22 11:42:22;;;;;;;6.65;4.03;;;18.30;67.80;;;;;;4987621;28;20532;-65
2022/04/22 11:45:15;;;;;;;8.82;3.60;;;18.40;68.50;;;;;;4973695;28;20047;-65
2022/04/22 11:47:41;;;;;;;;;;;18.60;66.50;;;;;;4992282;28;20511;-63
2022/04/22 11:50:09;;;;;;;8.00;4.20;;;18.80;67.30;;;;;;4990701;28;19928;-65
2022/04/22 11:52:35;;;;;;;7.38;3.90;;;19.00;67.60;;;;;;4988475;28;20068;-65
2022/04/22 11:55:02;;;;;;;4.75;3.75;;;19.20;67.80;;;;;;4962252;28;20669;-64
2022/04/22 11:57:33;;;;;;;7.78;4.22;;;19.40;66.80;;;;;;4984834;28;20148;-66
2022/04/22 12:05:37;;;;;;;7.72;4.30;;;19.40;65.40;;;;;;4981271;28;20089;-63
2022/04/22 12:08:08;;;;;;;5.63;3.90;;;19.40;65.50;;;;;;4964903;28;20042;-65
2022/04/22 12:10:34;;;;;;;6.60;4.43;;;19.40;65.20;;;;;;4978265;28;20042;-63
2022/04/22 12:13:04;;;;;;;12.60;4.30;;;19.50;65.40;;;;;;4982207;28;20045;-63
2022/04/22 12:15:31;;;;;;;8.82;4.57;;;19.50;65.10;;;;;;4985130;28;20042;-66
2022/04/22 12:17:57;;;;;;;7.30;4.28;;;19.70;65.80;;;;;;4968851;28;20465;-63
2022/04/22 12:20:27;;;;;;;7.47;4.60;;;19.80;65.80;;;;;;4981499;28;20056;-63
2022/04/22 12:22:55;;;;;;;8.75;4.18;;;19.90;64.90;;;;;;4971156;28;20061;-66
2022/04/22 12:25:23;;;;;;;6.97;3.83;;;19.90;64.60;;;;;;4980798;28;20049;-66
2022/04/22 12:28:11;;;;;;;7.20;4.07;;;19.90;65.30;;;;;;4947686;28;20050;-63
2022/04/22 12:30:38;;;;;;;6.55;4.60;;;20.10;64.10;;;;;;4962119;28;20072;-62
2022/04/22 12:33:15;;;;;;;7.03;4.10;;;20.00;63.10;;;;;;4981419;28;20132;-65
2022/04/22 12:35:42;;;;;;;7.18;4.55;;;20.00;63.00;;;;;;4962950;28;20046;-65
2022/04/22 12:38:13;;;;;;;7.20;4.57;;;20.10;62.70;;;;;;4951014;28;20136;-65
2022/04/22 12:40:47;;;;;;;10.07;4.10;;;20.00;61.40;;;;;;4960613;28;20057;-65
2022/04/22 12:43:27;;;;;;;5.55;4.32;;;20.10;62.40;;;;;;4975051;28;20044;-62
2022/04/22 12:52:14;;;;;;;7.00;4.53;;;20.20;61.10;;;;;;4974476;28;20046;-63
2022/04/22 12:54:45;;;;;;;11.50;4.55;;;20.30;62.60;;;;;;4981639;28;20046;-63
2022/04/22 12:57:23;;;;;;;9.90;4.55;;;20.50;61.70;;;;;;4979026;28;20050;-62
2022/04/22 12:59:54;;;;;;;9.40;4.78;;;20.60;60.90;;;;;;4980773;28;20082;-63
2022/04/22 13:02:28;;;;;;;6.65;4.10;;;20.60;60.30;;;;;;4973564;28;20058;-62
2022/04/22 13:04:59;;;;;;;8.68;4.15;;;20.70;60.70;;;;;;4981322;28;20524;-62
2022/04/22 13:07:42;;;;;;;46.72;14.55;;;20.80;60.60;;;;;;4963938;28;20065;-61
2022/04/22 13:10:15;;;;;;;31.35;7.63;;;20.90;59.70;;;;;;4956666;28;20046;-60
2022/04/22 13:12:43;;;;;;;8.73;4.25;;;20.90;59.70;;;;;;4980915;28;20552;-60
2022/04/22 13:15:20;;;;;;;11.38;4.93;;;20.90;59.00;;;;;;4984424;28;20121;-62
2022/04/22 13:17:50;;;;;;;8.65;4.60;;;21.00;59.70;;;;;;4954196;28;20137;-62
2022/04/22 13:20:18;;;;;;;10.10;4.97;;;21.10;59.60;;;;;;4953246;28;20059;-61
2022/04/22 13:22:45;;;;;;;9.95;4.68;;;21.10;58.80;;;;;;4973521;28;20576;-62
2022/04/22 13:25:13;;;;;;;6.22;4.55;;;21.10;59.00;;;;;;4972947;28;20054;-58
2022/04/22 13:27:40;;;;;;;7.13;4.70;;;21.20;59.70;;;;;;4959157;28;20046;-57
2022/04/22 13:30:07;;;;;;;7.47;4.18;;;21.30;58.60;;;;;;4971794;28;20050;-58
2022/04/22 13:32:33;;;;;;;6.45;4.07;;;21.30;58.00;;;;;;4962620;28;20061;-59
2022/04/22 13:34:59;;;;;;;8.30;4.38;;;21.40;58.40;;;;;;4983865;28;20488;-58
2022/04/22 13:37:26;;;;;;;11.65;4.60;;;21.70;57.70;;;;;;4982694;28;20045;-59
2022/04/22 13:39:52;;;;;;;12.10;4.35;;;21.70;56.60;;;;;;4973339;28;20046;-58
2022/04/22 13:42:18;;;;;;;7.90;4.50;;;21.70;57.20;;;;;;4984526;28;20780;-59
2022/04/22 13:52:58;;;;;;;7.93;4.78;;;21.70;56.40;;;;;;4966935;28;20572;-58
2022/04/22 13:55:24;;;;;;;7.32;4.70;;;21.80;56.00;;;;;;4987844;28;20057;-58
2022/04/22 13:57:51;;;;;;;6.63;4.20;;;21.90;55.60;;;;;;4987161;28;20046;-58
2022/04/22 14:00:17;;;;;;;8.90;4.07;;;21.80;55.30;;;;;;4966875;28;20104;-58
2022/04/22 14:02:43;;;;;;;7.93;4.75;;;21.80;55.30;;;;;;4962478;28;20049;-60
2022/04/22 14:05:09;;;;;;;7.25;4.15;;;21.80;55.30;;;;;;4975852;28;20190;-59
2022/04/22 14:07:35;;;;;;;11.25;4.57;;;21.80;56.00;;;;;;4975285;28;20132;-59